sensor_id;sensor_type;location;lat;lon;timestamp;P1;durP1;ratioP1;P2;durP2;ratioP2
50906;SDS011;36882;27.680;85.304;2022-10-31T00:02:02;48.17;;;29.23;;
50906;SDS011;36882;27.680;85.304;2022-10-31T00:04:33;54.10;;;30.80;;
50906;SDS011;36882;27.680;85.304;2022-10-31T00:07:03;48.10;;;29.40;;
50906;SDS011;36882;27.680;85.304;2022-10-31T00:12:04;48.00;;;31.83;;
50906;SDS011;36882;27.680;85.304;2022-10-31T00:14:34;56.67;;;37.25;;
50906;SDS011;36882;27.680;85.304;2022-10-31T00:17:05;56.83;;;37.42;;
50906;SDS011;36882;27.680;85.304;2022-10-31T00:19:35;62.22;;;40.20;;
50906;SDS011;36882;27.680;85.304;2022-10-31T00:22:05;63.10;;;35.92;;
50906;SDS011;36882;27.680;85.304;2022-10-31T00:24:37;65.05;;;42.17;;
50906;SDS011;36882;27.680;85.304;2022-10-31T00:27:07;59.88;;;44.50;;
50906;SDS011;36882;27.680;85.304;2022-10-31T00:29:37;73.57;;;46.88;;
50906;SDS011;36882;27.680;85.304;2022-10-31T00:32:08;87.43;;;56.60;;
50906;SDS011;36882;27.680;85.304;2022-10-31T00:34:38;84.70;;;54.40;;
50906;SDS011;36882;27.680;85.304;2022-10-31T00:37:08;81.80;;;50.95;;
50906;SDS011;36882;27.680;85.304;2022-10-31T00:39:39;74.90;;;48.50;;
50906;SDS011;36882;27.680;85.304;2022-10-31T00:42:10;76.88;;;51.55;;
50906;SDS011;36882;27.680;85.304;2022-10-31T00:44:40;74.85;;;46.85;;
50906;SDS011;36882;27.680;85.304;2022-10-31T00:49:41;77.80;;;45.47;;
50906;SDS011;36882;27.680;85.304;2022-10-31T00:52:11;75.63;;;44.97;;
50906;SDS011;36882;27.680;85.304;2022-10-31T00:54:42;66.43;;;42.80;;
50906;SDS011;36882;27.680;85.304;2022-10-31T00:57:13;68.78;;;44.65;;
50906;SDS011;36882;27.680;85.304;2022-10-31T00:59:43;60.00;;;37.15;;
50906;SDS011;36882;27.680;85.304;2022-10-31T01:02:14;76.55;;;41.38;;
50906;SDS011;36882;27.680;85.304;2022-10-31T01:07:14;59.08;;;37.42;;
50906;SDS011;36882;27.680;85.304;2022-10-31T01:09:44;59.90;;;37.65;;
50906;SDS011;36882;27.680;85.304;2022-10-31T01:14:45;62.05;;;38.78;;
50906;SDS011;36882;27.680;85.304;2022-10-31T01:17:15;69.15;;;40.10;;
50906;SDS011;36882;27.680;85.304;2022-10-31T01:19:45;65.45;;;37.50;;
50906;SDS011;36882;27.680;85.304;2022-10-31T01:22:16;57.38;;;36.80;;
50906;SDS011;36882;27.680;85.304;2022-10-31T01:24:46;64.30;;;38.58;;
50906;SDS011;36882;27.680;85.304;2022-10-31T01:27:16;66.72;;;39.38;;
50906;SDS011;36882;27.680;85.304;2022-10-31T01:29:47;64.57;;;38.13;;
50906;SDS011;36882;27.680;85.304;2022-10-31T01:32:17;68.05;;;40.63;;
50906;SDS011;36882;27.680;85.304;2022-10-31T01:34:47;76.03;;;44.22;;
50906;SDS011;36882;27.680;85.304;2022-10-31T01:39:48;58.37;;;38.60;;
50906;SDS011;36882;27.680;85.304;2022-10-31T01:42:19;71.28;;;42.38;;
50906;SDS011;36882;27.680;85.304;2022-10-31T01:44:53;62.13;;;40.80;;
50906;SDS011;36882;27.680;85.304;2022-10-31T01:47:31;94.55;;;44.80;;
50906;SDS011;36882;27.680;85.304;2022-10-31T01:50:24;76.03;;;43.00;;
50906;SDS011;36882;27.680;85.304;2022-10-31T01:55:32;69.78;;;41.30;;
50906;SDS011;36882;27.680;85.304;2022-10-31T01:58:06;67.65;;;41.45;;
50906;SDS011;36882;27.680;85.304;2022-10-31T02:00:41;71.22;;;43.53;;
50906;SDS011;36882;27.680;85.304;2022-10-31T02:03:15;70.47;;;43.00;;
50906;SDS011;36882;27.680;85.304;2022-10-31T02:05:47;79.65;;;42.15;;
50906;SDS011;36882;27.680;85.304;2022-10-31T02:08:20;77.82;;;42.10;;
50906;SDS011;36882;27.680;85.304;2022-10-31T02:11:00;62.20;;;37.60;;
50906;SDS011;36882;27.680;85.304;2022-10-31T02:13:30;55.13;;;34.00;;
50906;SDS011;36882;27.680;85.304;2022-10-31T02:16:02;51.15;;;32.35;;
50906;SDS011;36882;27.680;85.304;2022-10-31T02:18:32;51.08;;;35.15;;
50906;SDS011;36882;27.680;85.304;2022-10-31T02:27:02;51.25;;;32.35;;
50906;SDS011;36882;27.680;85.304;2022-10-31T02:30:02;59.05;;;36.40;;
50906;SDS011;36882;27.680;85.304;2022-10-31T02:41:37;61.63;;;39.08;;
50906;SDS011;36882;27.680;85.304;2022-10-31T02:44:22;55.13;;;36.70;;
50906;SDS011;36882;27.680;85.304;2022-10-31T02:47:00;64.85;;;38.35;;
50906;SDS011;36882;27.680;85.304;2022-10-31T02:49:37;60.78;;;38.55;;
50906;SDS011;36882;27.680;85.304;2022-10-31T02:52:20;65.32;;;39.53;;
50906;SDS011;36882;27.680;85.304;2022-10-31T02:54:53;69.55;;;41.75;;
50906;SDS011;36882;27.680;85.304;2022-10-31T02:57:24;80.47;;;45.60;;
50906;SDS011;36882;27.680;85.304;2022-10-31T02:59:59;75.90;;;41.00;;
50906;SDS011;36882;27.680;85.304;2022-10-31T03:05:40;67.65;;;41.20;;
50906;SDS011;36882;27.680;85.304;2022-10-31T03:08:49;69.78;;;42.30;;
50906;SDS011;36882;27.680;85.304;2022-10-31T03:11:35;72.35;;;46.38;;
50906;SDS011;36882;27.680;85.304;2022-10-31T03:14:21;82.32;;;46.28;;
50906;SDS011;36882;27.680;85.304;2022-10-31T03:16:59;75.82;;;49.42;;
50906;SDS011;36882;27.680;85.304;2022-10-31T03:19:38;80.78;;;47.03;;
50906;SDS011;36882;27.680;85.304;2022-10-31T03:22:15;84.65;;;47.92;;
50906;SDS011;36882;27.680;85.304;2022-10-31T03:24:51;73.32;;;48.55;;
50906;SDS011;36882;27.680;85.304;2022-10-31T03:27:24;78.20;;;46.33;;
50906;SDS011;36882;27.680;85.304;2022-10-31T03:29:57;81.30;;;47.50;;
50906;SDS011;36882;27.680;85.304;2022-10-31T03:32:38;81.90;;;46.42;;
50906;SDS011;36882;27.680;85.304;2022-10-31T03:35:13;72.50;;;47.13;;
50906;SDS011;36882;27.680;85.304;2022-10-31T03:37:47;71.20;;;46.72;;
50906;SDS011;36882;27.680;85.304;2022-10-31T03:40:19;77.68;;;52.90;;
50906;SDS011;36882;27.680;85.304;2022-10-31T03:42:54;87.22;;;54.85;;
50906;SDS011;36882;27.680;85.304;2022-10-31T03:45:32;86.00;;;53.17;;
50906;SDS011;36882;27.680;85.304;2022-10-31T03:48:04;97.57;;;56.22;;
50906;SDS011;36882;27.680;85.304;2022-10-31T03:50:39;97.10;;;58.22;;
50906;SDS011;36882;27.680;85.304;2022-10-31T03:53:26;95.50;;;55.25;;
50906;SDS011;36882;27.680;85.304;2022-10-31T03:56:09;94.10;;;62.22;;
50906;SDS011;36882;27.680;85.304;2022-10-31T04:01:33;84.30;;;56.22;;
50906;SDS011;36882;27.680;85.304;2022-10-31T04:04:07;78.15;;;52.88;;
50906;SDS011;36882;27.680;85.304;2022-10-31T04:06:39;82.32;;;52.17;;
50906;SDS011;36882;27.680;85.304;2022-10-31T04:09:11;81.65;;;53.00;;
50906;SDS011;36882;27.680;85.304;2022-10-31T04:11:46;90.25;;;52.70;;
50906;SDS011;36882;27.680;85.304;2022-10-31T04:14:20;82.20;;;51.65;;
50906;SDS011;36882;27.680;85.304;2022-10-31T04:16:52;83.93;;;56.38;;
50906;SDS011;36882;27.680;85.304;2022-10-31T04:19:23;73.10;;;46.63;;
50906;SDS011;36882;27.680;85.304;2022-10-31T04:21:53;59.15;;;37.95;;
50906;SDS011;36882;27.680;85.304;2022-10-31T04:24:23;59.13;;;40.63;;
50906;SDS011;36882;27.680;85.304;2022-10-31T04:26:53;75.05;;;51.15;;
50906;SDS011;36882;27.680;85.304;2022-10-31T04:29:23;89.18;;;50.75;;
50906;SDS011;36882;27.680;85.304;2022-10-31T04:31:53;76.28;;;50.17;;
50906;SDS011;36882;27.680;85.304;2022-10-31T04:34:23;77.55;;;46.30;;
50906;SDS011;36882;27.680;85.304;2022-10-31T04:36:53;74.25;;;48.47;;
50906;SDS011;36882;27.680;85.304;2022-10-31T04:39:23;87.82;;;46.85;;
50906;SDS011;36882;27.680;85.304;2022-10-31T04:41:53;75.18;;;47.78;;
50906;SDS011;36882;27.680;85.304;2022-10-31T04:44:26;74.70;;;50.65;;
50906;SDS011;36882;27.680;85.304;2022-10-31T04:46:56;80.50;;;48.50;;
50906;SDS011;36882;27.680;85.304;2022-10-31T04:49:26;80.03;;;48.08;;
50906;SDS011;36882;27.680;85.304;2022-10-31T04:51:56;63.33;;;41.08;;
50906;SDS011;36882;27.680;85.304;2022-10-31T04:56:55;64.03;;;40.97;;
50906;SDS011;36882;27.680;85.304;2022-10-31T04:59:25;57.47;;;38.78;;
50906;SDS011;36882;27.680;85.304;2022-10-31T05:01:55;49.33;;;32.97;;
50906;SDS011;36882;27.680;85.304;2022-10-31T05:04:26;50.25;;;33.20;;
50906;SDS011;36882;27.680;85.304;2022-10-31T05:06:56;57.05;;;36.05;;
50906;SDS011;36882;27.680;85.304;2022-10-31T05:11:55;47.25;;;30.13;;
50906;SDS011;36882;27.680;85.304;2022-10-31T05:14:25;72.18;;;39.75;;
50906;SDS011;36882;27.680;85.304;2022-10-31T05:16:55;62.38;;;34.25;;
50906;SDS011;36882;27.680;85.304;2022-10-31T05:19:29;56.63;;;35.08;;
50906;SDS011;36882;27.680;85.304;2022-10-31T05:22:02;52.10;;;27.25;;
50906;SDS011;36882;27.680;85.304;2022-10-31T05:24:32;50.05;;;31.50;;
50906;SDS011;36882;27.680;85.304;2022-10-31T05:27:04;45.97;;;27.23;;
50906;SDS011;36882;27.680;85.304;2022-10-31T05:29:34;54.72;;;30.30;;
50906;SDS011;36882;27.680;85.304;2022-10-31T05:32:04;44.85;;;28.08;;
50906;SDS011;36882;27.680;85.304;2022-10-31T05:34:34;41.92;;;26.90;;
50906;SDS011;36882;27.680;85.304;2022-10-31T05:37:03;42.05;;;22.52;;
50906;SDS011;36882;27.680;85.304;2022-10-31T05:42:03;37.33;;;20.93;;
50906;SDS011;36882;27.680;85.304;2022-10-31T05:44:33;33.35;;;19.50;;
50906;SDS011;36882;27.680;85.304;2022-10-31T05:47:03;34.30;;;21.73;;
50906;SDS011;36882;27.680;85.304;2022-10-31T05:49:33;35.90;;;21.67;;
50906;SDS011;36882;27.680;85.304;2022-10-31T05:52:03;28.73;;;19.48;;
50906;SDS011;36882;27.680;85.304;2022-10-31T05:57:03;26.17;;;17.02;;
50906;SDS011;36882;27.680;85.304;2022-10-31T05:59:34;28.45;;;18.42;;
50906;SDS011;36882;27.680;85.304;2022-10-31T06:02:03;32.88;;;17.77;;
50906;SDS011;36882;27.680;85.304;2022-10-31T06:04:33;30.00;;;16.83;;
50906;SDS011;36882;27.680;85.304;2022-10-31T06:07:04;34.22;;;16.73;;
50906;SDS011;36882;27.680;85.304;2022-10-31T06:09:34;34.05;;;15.95;;
50906;SDS011;36882;27.680;85.304;2022-10-31T06:14:34;27.83;;;16.63;;
50906;SDS011;36882;27.680;85.304;2022-10-31T06:17:04;28.95;;;14.68;;
50906;SDS011;36882;27.680;85.304;2022-10-31T06:19:34;21.27;;;13.95;;
50906;SDS011;36882;27.680;85.304;2022-10-31T06:22:05;26.50;;;16.38;;
50906;SDS011;36882;27.680;85.304;2022-10-31T06:24:35;27.25;;;16.17;;
50906;SDS011;36882;27.680;85.304;2022-10-31T06:29:34;31.17;;;15.95;;
50906;SDS011;36882;27.680;85.304;2022-10-31T06:32:05;21.90;;;13.43;;
50906;SDS011;36882;27.680;85.304;2022-10-31T06:37:05;20.50;;;12.70;;
50906;SDS011;36882;27.680;85.304;2022-10-31T06:39:36;29.65;;;13.80;;
50906;SDS011;36882;27.680;85.304;2022-10-31T06:42:06;16.83;;;12.18;;
50906;SDS011;36882;27.680;85.304;2022-10-31T06:44:36;20.45;;;13.80;;
50906;SDS011;36882;27.680;85.304;2022-10-31T06:47:06;17.02;;;12.15;;
50906;SDS011;36882;27.680;85.304;2022-10-31T06:52:06;23.92;;;12.55;;
50906;SDS011;36882;27.680;85.304;2022-10-31T06:54:36;21.38;;;12.88;;
50906;SDS011;36882;27.680;85.304;2022-10-31T06:57:06;19.23;;;12.27;;
50906;SDS011;36882;27.680;85.304;2022-10-31T07:02:07;19.83;;;13.82;;
50906;SDS011;36882;27.680;85.304;2022-10-31T07:04:39;21.58;;;13.20;;
50906;SDS011;36882;27.680;85.304;2022-10-31T07:07:09;21.70;;;12.32;;
50906;SDS011;36882;27.680;85.304;2022-10-31T07:09:39;20.85;;;15.18;;
50906;SDS011;36882;27.680;85.304;2022-10-31T07:12:09;20.33;;;13.80;;
50906;SDS011;36882;27.680;85.304;2022-10-31T07:14:41;19.95;;;13.38;;
50906;SDS011;36882;27.680;85.304;2022-10-31T07:17:11;25.75;;;15.25;;
50906;SDS011;36882;27.680;85.304;2022-10-31T07:19:41;24.30;;;14.32;;
50906;SDS011;36882;27.680;85.304;2022-10-31T07:22:11;27.55;;;17.25;;
50906;SDS011;36882;27.680;85.304;2022-10-31T07:24:42;43.22;;;24.25;;
50906;SDS011;36882;27.680;85.304;2022-10-31T07:27:12;38.85;;;23.30;;
50906;SDS011;36882;27.680;85.304;2022-10-31T07:29:42;35.58;;;25.35;;
50906;SDS011;36882;27.680;85.304;2022-10-31T07:34:41;51.45;;;24.48;;
50906;SDS011;36882;27.680;85.304;2022-10-31T07:37:13;41.30;;;23.00;;
50906;SDS011;36882;27.680;85.304;2022-10-31T07:39:44;32.65;;;21.90;;
50906;SDS011;36882;27.680;85.304;2022-10-31T07:42:16;43.35;;;24.50;;
50906;SDS011;36882;27.680;85.304;2022-10-31T07:47:19;37.67;;;20.42;;
50906;SDS011;36882;27.680;85.304;2022-10-31T07:49:50;34.88;;;22.90;;
50906;SDS011;36882;27.680;85.304;2022-10-31T07:52:20;35.65;;;22.48;;
50906;SDS011;36882;27.680;85.304;2022-10-31T07:54:50;31.20;;;21.13;;
50906;SDS011;36882;27.680;85.304;2022-10-31T07:57:21;32.75;;;21.00;;
50906;SDS011;36882;27.680;85.304;2022-10-31T07:59:56;38.42;;;20.65;;
50906;SDS011;36882;27.680;85.304;2022-10-31T08:02:27;34.55;;;21.60;;
50906;SDS011;36882;27.680;85.304;2022-10-31T08:04:58;32.38;;;20.80;;
50906;SDS011;36882;27.680;85.304;2022-10-31T08:07:35;28.40;;;20.45;;
50906;SDS011;36882;27.680;85.304;2022-10-31T08:10:06;34.83;;;18.27;;
50906;SDS011;36882;27.680;85.304;2022-10-31T08:12:37;31.80;;;18.10;;
50906;SDS011;36882;27.680;85.304;2022-10-31T08:15:07;26.42;;;18.30;;
50906;SDS011;36882;27.680;85.304;2022-10-31T08:17:39;35.42;;;18.00;;
50906;SDS011;36882;27.680;85.304;2022-10-31T08:20:09;28.63;;;18.70;;
50906;SDS011;36882;27.680;85.304;2022-10-31T08:22:40;26.40;;;17.55;;
50906;SDS011;36882;27.680;85.304;2022-10-31T08:25:10;29.65;;;18.55;;
50906;SDS011;36882;27.680;85.304;2022-10-31T08:27:41;30.10;;;17.75;;
50906;SDS011;36882;27.680;85.304;2022-10-31T08:30:11;28.83;;;16.83;;
50906;SDS011;36882;27.680;85.304;2022-10-31T08:32:42;29.10;;;18.48;;
50906;SDS011;36882;27.680;85.304;2022-10-31T08:35:12;30.80;;;17.83;;
50906;SDS011;36882;27.680;85.304;2022-10-31T08:37:43;27.67;;;17.08;;
50906;SDS011;36882;27.680;85.304;2022-10-31T08:40:14;33.15;;;16.95;;
50906;SDS011;36882;27.680;85.304;2022-10-31T08:42:45;29.08;;;17.52;;
50906;SDS011;36882;27.680;85.304;2022-10-31T08:45:15;29.40;;;17.95;;
50906;SDS011;36882;27.680;85.304;2022-10-31T08:47:46;25.08;;;16.92;;
50906;SDS011;36882;27.680;85.304;2022-10-31T08:52:46;30.95;;;18.58;;
50906;SDS011;36882;27.680;85.304;2022-10-31T08:55:32;28.23;;;18.77;;
50906;SDS011;36882;27.680;85.304;2022-10-31T08:58:04;24.52;;;16.40;;
50906;SDS011;36882;27.680;85.304;2022-10-31T09:00:36;22.45;;;17.10;;
50906;SDS011;36882;27.680;85.304;2022-10-31T09:03:08;30.50;;;18.88;;
50906;SDS011;36882;27.680;85.304;2022-10-31T09:05:41;28.33;;;16.38;;
50906;SDS011;36882;27.680;85.304;2022-10-31T09:08:12;25.15;;;16.48;;
50906;SDS011;36882;27.680;85.304;2022-10-31T09:10:43;31.48;;;17.80;;
50906;SDS011;36882;27.680;85.304;2022-10-31T09:13:15;23.52;;;16.40;;
50906;SDS011;36882;27.680;85.304;2022-10-31T09:15:47;29.17;;;17.15;;
50906;SDS011;36882;27.680;85.304;2022-10-31T09:18:19;23.60;;;17.50;;
50906;SDS011;36882;27.680;85.304;2022-10-31T09:20:51;32.70;;;17.58;;
50906;SDS011;36882;27.680;85.304;2022-10-31T09:23:22;25.88;;;16.20;;
50906;SDS011;36882;27.680;85.304;2022-10-31T09:25:52;30.83;;;17.50;;
50906;SDS011;36882;27.680;85.304;2022-10-31T09:28:23;29.20;;;17.50;;
50906;SDS011;36882;27.680;85.304;2022-10-31T09:30:53;33.55;;;18.15;;
50906;SDS011;36882;27.680;85.304;2022-10-31T09:33:24;28.42;;;19.27;;
50906;SDS011;36882;27.680;85.304;2022-10-31T09:35:54;43.88;;;26.60;;
50906;SDS011;36882;27.680;85.304;2022-10-31T09:38:26;55.15;;;29.88;;
50906;SDS011;36882;27.680;85.304;2022-10-31T09:41:07;38.75;;;21.60;;
50906;SDS011;36882;27.680;85.304;2022-10-31T09:44:19;42.00;;;23.33;;
50906;SDS011;36882;27.680;85.304;2022-10-31T09:46:51;35.28;;;22.38;;
50906;SDS011;36882;27.680;85.304;2022-10-31T09:49:45;36.70;;;22.05;;
50906;SDS011;36882;27.680;85.304;2022-10-31T09:52:29;35.80;;;20.00;;
50906;SDS011;36882;27.680;85.304;2022-10-31T09:55:09;36.58;;;19.98;;
50906;SDS011;36882;27.680;85.304;2022-10-31T09:57:46;28.85;;;17.42;;
50906;SDS011;36882;27.680;85.304;2022-10-31T10:00:18;55.90;;;23.98;;
50906;SDS011;36882;27.680;85.304;2022-10-31T10:02:56;32.67;;;20.02;;
50906;SDS011;36882;27.680;85.304;2022-10-31T10:05:49;32.70;;;18.75;;
50906;SDS011;36882;27.680;85.304;2022-10-31T10:08:26;35.70;;;19.77;;
50906;SDS011;36882;27.680;85.304;2022-10-31T10:20:05;50.70;;;27.75;;
50906;SDS011;36882;27.680;85.304;2022-10-31T10:22:54;41.80;;;23.48;;
50906;SDS011;36882;27.680;85.304;2022-10-31T10:25:47;33.40;;;19.38;;
50906;SDS011;36882;27.680;85.304;2022-10-31T10:28:25;29.80;;;19.13;;
50906;SDS011;36882;27.680;85.304;2022-10-31T10:31:03;36.30;;;19.27;;
50906;SDS011;36882;27.680;85.304;2022-10-31T10:34:02;27.65;;;18.55;;
50906;SDS011;36882;27.680;85.304;2022-10-31T10:36:57;27.17;;;19.10;;
50906;SDS011;36882;27.680;85.304;2022-10-31T10:39:43;33.42;;;18.77;;
50906;SDS011;36882;27.680;85.304;2022-10-31T10:42:17;31.73;;;18.48;;
50906;SDS011;36882;27.680;85.304;2022-10-31T10:45:06;30.85;;;21.17;;
50906;SDS011;36882;27.680;85.304;2022-10-31T10:50:39;41.70;;;21.92;;
50906;SDS011;36882;27.680;85.304;2022-10-31T10:53:21;30.25;;;21.02;;
50906;SDS011;36882;27.680;85.304;2022-10-31T10:56:09;34.25;;;22.58;;
50906;SDS011;36882;27.680;85.304;2022-10-31T10:58:45;35.20;;;21.35;;
50906;SDS011;36882;27.680;85.304;2022-10-31T11:01:16;43.05;;;20.20;;
50906;SDS011;36882;27.680;85.304;2022-10-31T11:03:46;32.60;;;21.98;;
50906;SDS011;36882;27.680;85.304;2022-10-31T11:06:17;32.85;;;21.38;;
50906;SDS011;36882;27.680;85.304;2022-10-31T11:08:50;39.78;;;22.20;;
50906;SDS011;36882;27.680;85.304;2022-10-31T11:14:11;54.42;;;24.05;;
50906;SDS011;36882;27.680;85.304;2022-10-31T11:16:43;40.63;;;20.77;;
50906;SDS011;36882;27.680;85.304;2022-10-31T11:19:17;37.75;;;21.15;;
50906;SDS011;36882;27.680;85.304;2022-10-31T11:21:51;43.65;;;21.13;;
50906;SDS011;36882;27.680;85.304;2022-10-31T11:24:22;51.45;;;25.60;;
50906;SDS011;36882;27.680;85.304;2022-10-31T11:27:05;62.45;;;24.95;;
50906;SDS011;36882;27.680;85.304;2022-10-31T11:29:52;67.10;;;29.63;;
50906;SDS011;36882;27.680;85.304;2022-10-31T11:32:32;46.40;;;26.00;;
50906;SDS011;36882;27.680;85.304;2022-10-31T11:35:03;48.30;;;29.10;;
50906;SDS011;36882;27.680;85.304;2022-10-31T11:37:42;52.47;;;28.38;;
50906;SDS011;36882;27.680;85.304;2022-10-31T11:40:16;47.63;;;25.95;;
50906;SDS011;36882;27.680;85.304;2022-10-31T11:42:52;63.58;;;26.67;;
50906;SDS011;36882;27.680;85.304;2022-10-31T11:45:28;59.20;;;31.17;;
50906;SDS011;36882;27.680;85.304;2022-10-31T11:48:02;55.08;;;26.38;;
50906;SDS011;36882;27.680;85.304;2022-10-31T11:50:48;73.88;;;31.02;;
50906;SDS011;36882;27.680;85.304;2022-10-31T11:53:26;61.47;;;28.60;;
50906;SDS011;36882;27.680;85.304;2022-10-31T11:56:12;57.90;;;28.95;;
50906;SDS011;36882;27.680;85.304;2022-10-31T11:58:43;49.72;;;27.33;;
50906;SDS011;36882;27.680;85.304;2022-10-31T12:01:25;52.90;;;27.85;;
50906;SDS011;36882;27.680;85.304;2022-10-31T12:06:44;58.78;;;34.17;;
50906;SDS011;36882;27.680;85.304;2022-10-31T12:15:18;56.22;;;30.83;;
50906;SDS011;36882;27.680;85.304;2022-10-31T12:24:00;60.78;;;36.40;;
50906;SDS011;36882;27.680;85.304;2022-10-31T12:27:03;58.40;;;37.47;;
50906;SDS011;36882;27.680;85.304;2022-10-31T12:29:56;58.90;;;37.22;;
50906;SDS011;36882;27.680;85.304;2022-10-31T12:35:33;53.30;;;32.50;;
50906;SDS011;36882;27.680;85.304;2022-10-31T12:38:30;63.83;;;32.65;;
50906;SDS011;36882;27.680;85.304;2022-10-31T12:41:33;64.13;;;34.08;;
50906;SDS011;36882;27.680;85.304;2022-10-31T12:44:30;60.72;;;33.28;;
50906;SDS011;36882;27.680;85.304;2022-10-31T12:47:29;57.70;;;36.00;;
50906;SDS011;36882;27.680;85.304;2022-10-31T12:50:22;57.92;;;35.25;;
50906;SDS011;36882;27.680;85.304;2022-10-31T12:56:32;62.22;;;36.45;;
50906;SDS011;36882;27.680;85.304;2022-10-31T12:59:30;55.30;;;32.20;;
50906;SDS011;36882;27.680;85.304;2022-10-31T13:08:08;58.35;;;29.75;;
50906;SDS011;36882;27.680;85.304;2022-10-31T13:10:44;52.80;;;28.33;;
50906;SDS011;36882;27.680;85.304;2022-10-31T13:13:26;50.80;;;28.15;;
50906;SDS011;36882;27.680;85.304;2022-10-31T13:16:04;54.47;;;25.23;;
50906;SDS011;36882;27.680;85.304;2022-10-31T13:18:46;57.03;;;27.15;;
50906;SDS011;36882;27.680;85.304;2022-10-31T13:21:30;42.35;;;26.85;;
50906;SDS011;36882;27.680;85.304;2022-10-31T13:24:12;45.35;;;26.33;;
50906;SDS011;36882;27.680;85.304;2022-10-31T13:29:21;39.10;;;23.25;;
50906;SDS011;36882;27.680;85.304;2022-10-31T13:32:04;42.25;;;25.92;;
50906;SDS011;36882;27.680;85.304;2022-10-31T13:34:37;35.05;;;23.02;;
50906;SDS011;36882;27.680;85.304;2022-10-31T13:40:27;38.88;;;23.38;;
50906;SDS011;36882;27.680;85.304;2022-10-31T13:46:22;53.60;;;24.30;;
50906;SDS011;36882;27.680;85.304;2022-10-31T13:48:55;40.75;;;24.65;;
50906;SDS011;36882;27.680;85.304;2022-10-31T13:53:58;42.00;;;23.83;;
50906;SDS011;36882;27.680;85.304;2022-10-31T13:56:49;38.83;;;25.90;;
50906;SDS011;36882;27.680;85.304;2022-10-31T13:59:21;42.00;;;24.02;;
50906;SDS011;36882;27.680;85.304;2022-10-31T14:01:54;43.80;;;23.77;;
50906;SDS011;36882;27.680;85.304;2022-10-31T14:04:32;42.88;;;27.08;;
50906;SDS011;36882;27.680;85.304;2022-10-31T14:07:17;53.03;;;27.85;;
50906;SDS011;36882;27.680;85.304;2022-10-31T14:10:02;45.13;;;29.38;;
50906;SDS011;36882;27.680;85.304;2022-10-31T14:12:44;57.97;;;32.47;;
50906;SDS011;36882;27.680;85.304;2022-10-31T14:15:19;58.47;;;33.83;;
50906;SDS011;36882;27.680;85.304;2022-10-31T14:17:57;67.22;;;36.63;;
50906;SDS011;36882;27.680;85.304;2022-10-31T14:20:32;82.03;;;40.60;;
50906;SDS011;36882;27.680;85.304;2022-10-31T14:23:28;65.80;;;34.55;;
50906;SDS011;36882;27.680;85.304;2022-10-31T14:28:49;64.70;;;35.30;;
50906;SDS011;36882;27.680;85.304;2022-10-31T14:31:34;72.13;;;36.63;;
50906;SDS011;36882;27.680;85.304;2022-10-31T14:46:07;64.35;;;33.95;;
50906;SDS011;36882;27.680;85.304;2022-10-31T14:48:53;64.00;;;32.20;;
50906;SDS011;36882;27.680;85.304;2022-10-31T14:51:45;58.17;;;30.98;;
50906;SDS011;36882;27.680;85.304;2022-10-31T14:54:18;53.70;;;30.58;;
50906;SDS011;36882;27.680;85.304;2022-10-31T14:57:07;49.22;;;29.70;;
50906;SDS011;36882;27.680;85.304;2022-10-31T14:59:50;51.80;;;30.52;;
50906;SDS011;36882;27.680;85.304;2022-10-31T15:02:41;43.92;;;28.08;;
50906;SDS011;36882;27.680;85.304;2022-10-31T15:05:22;61.25;;;28.33;;
50906;SDS011;36882;27.680;85.304;2022-10-31T15:07:55;61.53;;;30.05;;
50906;SDS011;36882;27.680;85.304;2022-10-31T15:10:28;55.58;;;25.92;;
50906;SDS011;36882;27.680;85.304;2022-10-31T15:15:51;47.08;;;24.73;;
50906;SDS011;36882;27.680;85.304;2022-10-31T15:18:25;48.30;;;26.38;;
50906;SDS011;36882;27.680;85.304;2022-10-31T15:20:56;45.53;;;25.55;;
50906;SDS011;36882;27.680;85.304;2022-10-31T15:23:28;47.63;;;25.40;;
50906;SDS011;36882;27.680;85.304;2022-10-31T15:26:00;45.67;;;26.35;;
50906;SDS011;36882;27.680;85.304;2022-10-31T15:28:32;44.67;;;27.23;;
50906;SDS011;36882;27.680;85.304;2022-10-31T15:33:39;50.10;;;26.70;;
50906;SDS011;36882;27.680;85.304;2022-10-31T15:36:18;44.42;;;25.55;;
50906;SDS011;36882;27.680;85.304;2022-10-31T15:38:56;52.20;;;27.15;;
50906;SDS011;36882;27.680;85.304;2022-10-31T15:41:30;46.85;;;25.27;;
50906;SDS011;36882;27.680;85.304;2022-10-31T15:44:05;41.25;;;24.80;;
50906;SDS011;36882;27.680;85.304;2022-10-31T15:46:53;45.63;;;25.40;;
50906;SDS011;36882;27.680;85.304;2022-10-31T15:49:27;45.15;;;25.75;;
50906;SDS011;36882;27.680;85.304;2022-10-31T15:55:16;37.58;;;23.17;;
50906;SDS011;36882;27.680;85.304;2022-10-31T15:57:53;46.25;;;27.85;;
50906;SDS011;36882;27.680;85.304;2022-10-31T16:00:33;44.40;;;25.15;;
50906;SDS011;36882;27.680;85.304;2022-10-31T16:05:59;47.20;;;26.05;;
50906;SDS011;36882;27.680;85.304;2022-10-31T16:08:33;45.15;;;23.30;;
50906;SDS011;36882;27.680;85.304;2022-10-31T16:14:04;40.67;;;23.80;;
50906;SDS011;36882;27.680;85.304;2022-10-31T16:16:53;36.35;;;22.10;;
50906;SDS011;36882;27.680;85.304;2022-10-31T16:19:27;43.45;;;24.48;;
50906;SDS011;36882;27.680;85.304;2022-10-31T16:22:03;39.10;;;24.65;;
50906;SDS011;36882;27.680;85.304;2022-10-31T16:24:52;44.78;;;25.10;;
50906;SDS011;36882;27.680;85.304;2022-10-31T16:27:26;48.05;;;24.75;;
50906;SDS011;36882;27.680;85.304;2022-10-31T16:30:00;55.15;;;27.17;;
50906;SDS011;36882;27.680;85.304;2022-10-31T16:32:34;64.10;;;33.08;;
50906;SDS011;36882;27.680;85.304;2022-10-31T16:35:17;74.88;;;31.92;;
50906;SDS011;36882;27.680;85.304;2022-10-31T16:38:00;79.88;;;32.20;;
50906;SDS011;36882;27.680;85.304;2022-10-31T16:40:32;67.65;;;33.80;;
50906;SDS011;36882;27.680;85.304;2022-10-31T16:43:09;58.75;;;29.13;;
50906;SDS011;36882;27.680;85.304;2022-10-31T16:45:43;74.43;;;31.20;;
50906;SDS011;36882;27.680;85.304;2022-10-31T16:48:16;65.13;;;32.97;;
50906;SDS011;36882;27.680;85.304;2022-10-31T16:50:49;53.22;;;31.65;;
50906;SDS011;36882;27.680;85.304;2022-10-31T16:53:21;56.97;;;30.70;;
50906;SDS011;36882;27.680;85.304;2022-10-31T16:55:56;69.50;;;31.20;;
50906;SDS011;36882;27.680;85.304;2022-10-31T16:58:28;57.83;;;28.35;;
50906;SDS011;36882;27.680;85.304;2022-10-31T17:01:01;43.35;;;28.35;;
50906;SDS011;36882;27.680;85.304;2022-10-31T17:03:33;44.28;;;27.00;;
50906;SDS011;36882;27.680;85.304;2022-10-31T17:06:04;50.50;;;28.10;;
50906;SDS011;36882;27.680;85.304;2022-10-31T17:08:34;44.97;;;26.30;;
50906;SDS011;36882;27.680;85.304;2022-10-31T17:11:03;45.63;;;25.42;;
50906;SDS011;36882;27.680;85.304;2022-10-31T17:13:36;42.38;;;25.70;;
50906;SDS011;36882;27.680;85.304;2022-10-31T17:16:07;40.00;;;24.33;;
50906;SDS011;36882;27.680;85.304;2022-10-31T17:18:37;46.67;;;24.77;;
50906;SDS011;36882;27.680;85.304;2022-10-31T17:21:09;40.80;;;25.40;;
50906;SDS011;36882;27.680;85.304;2022-10-31T17:23:49;36.67;;;22.88;;